Time;durP1;ratioP1;P1;durP2;ratioP2;P2;SDS_P1;SDS_P2;PMS_P1;PMS_P2;Temp;Humidity;BMP_temperature;BMP_pressure;BME280_temperature;BME280_humidity;BME280_pressure;Samples;Min_cycle;Max_cycle;Signal;HPM_P1;HPM_P2
2022/07/12 00:00:10;;;;;;;2.17;1.60;;;;;;;13.31;77.84;101541.11;1672344;85;21074;-87
2022/07/12 00:02:39;;;;;;;2.33;1.55;;;;;;;13.30;77.97;101535.30;1684553;83;21074;-87
2022/07/12 00:05:07;;;;;;;2.10;1.65;;;;;;;13.30;78.01;101537.95;1693264;84;21066;-87
2022/07/12 00:07:40;;;;;;;4.05;1.50;;;;;;;13.28;78.15;101536.58;1676704;84;21085;-87
2022/07/12 00:10:08;;;;;;;4.85;1.70;;;;;;;13.27;78.20;101531.24;1679309;83;21085;-87
2022/07/12 00:12:43;;;;;;;4.33;1.55;;;;;;;13.27;78.34;101533.48;1686366;83;21122;-91
2022/07/12 00:15:10;;;;;;;5.60;1.80;;;;;;;13.27;78.44;101532.56;1685207;84;21796;-91
2022/07/12 00:17:38;;;;;;;4.95;1.90;;;;;;;13.19;78.52;101517.42;1688800;84;21066;-91
2022/07/12 00:20:06;;;;;;;3.50;1.47;;;;;;;13.29;78.56;101530.45;1696124;84;21102;-92
2022/07/12 00:22:33;;;;;;;3.72;1.50;;;;;;;13.29;78.53;101535.73;1686877;84;21079;-87
2022/07/12 00:25:00;;;;;;;3.12;1.57;;;;;;;13.28;78.56;101529.08;1695766;84;21585;-91
2022/07/12 00:27:28;;;;;;;3.95;1.52;;;;;;;13.26;78.66;101523.75;1696944;84;21860;-88
2022/07/12 00:29:55;;;;;;;2.22;1.40;;;;;;;13.26;78.66;101526.39;1696644;84;21141;-89
2022/07/12 00:32:22;;;;;;;5.22;1.47;;;;;;;13.25;78.74;101530.31;1695233;84;21042;-89
2022/07/12 00:34:49;;;;;;;3.35;2.05;;;;;;;13.24;78.74;101526.78;1697077;84;21091;-93
2022/07/12 00:37:37;;;;;;;3.50;1.80;;;;;;;13.22;78.79;101529.38;1683350;84;21102;-92
2022/07/12 00:40:06;;;;;;;4.75;1.82;;;;;;;13.20;78.88;101524.48;1673641;85;21785;-92
2022/07/12 00:42:45;;;;;;;3.87;2.10;;;;;;;13.19;78.95;101528.39;1677218;84;21138;-91
2022/07/12 00:45:12;;;;;;;2.52;1.62;;;;;;;13.15;78.98;101527.85;1681109;84;21114;-87
2022/07/12 00:47:42;;;;;;;1.67;1.57;;;;;;;13.15;79.05;101537.11;1688329;83;21092;-87
2022/07/12 00:50:12;;;;;;;4.67;2.00;;;;;;;13.12;79.09;101535.69;1695925;84;21102;-92
2022/07/12 00:52:39;;;;;;;3.65;1.60;;;;;;;13.10;79.17;101540.96;1686410;84;21718;-91
2022/07/12 00:55:07;;;;;;;4.10;1.77;;;;;;;13.07;79.25;101530.30;1680597;84;21134;-92
2022/07/12 00:57:34;;;;;;;3.02;2.17;;;;;;;13.06;79.38;101537.73;1689661;84;21058;-87
2022/07/12 01:00:01;;;;;;;4.35;1.80;;;;;;;13.02;79.45;101531.47;1691752;84;21094;-87
2022/07/12 01:02:28;;;;;;;3.52;2.15;;;;;;;13.02;79.51;101534.55;1687990;84;21066;-88
2022/07/12 01:05:10;;;;;;;2.72;1.80;;;;;;;13.00;79.61;101537.14;1685889;84;21784;-92
2022/07/12 01:07:36;;;;;;;3.62;2.10;;;;;;;12.99;79.65;101530.52;1671111;83;21085;-92
2022/07/12 01:10:04;;;;;;;4.97;1.80;;;;;;;12.98;79.73;101531.36;1675009;84;21097;-87
2022/07/12 01:12:32;;;;;;;4.58;2.33;;;;;;;12.97;79.83;101527.83;1678205;83;21710;-88
2022/07/12 01:15:00;;;;;;;3.95;1.90;;;;;;;12.95;79.86;101533.50;1698986;83;21133;-92
2022/07/12 01:17:27;;;;;;;7.35;2.30;;;;;;;12.93;79.93;101527.69;1677288;83;21725;-92
2022/07/12 01:19:56;;;;;;;3.60;2.02;;;;;;;12.93;80.01;101533.89;1686521;83;21058;-92
2022/07/12 01:22:32;;;;;;;3.08;1.70;;;;;;;12.91;80.04;101532.03;1692800;84;21074;-92
2022/07/12 01:25:04;;;;;;;3.77;2.00;;;;;;;12.90;80.13;101520.58;1674023;84;21315;-88
2022/07/12 01:27:31;;;;;;;3.98;2.30;;;;;;;12.91;80.18;101525.43;1666155;83;21583;-88
2022/07/12 01:29:58;;;;;;;5.60;2.15;;;;;;;12.87;80.28;101528.41;1666522;85;22596;-87
2022/07/12 01:32:25;;;;;;;10.18;2.17;;;;;;;12.88;80.47;101524.93;1666714;85;21053;-88
2022/07/12 01:35:02;;;;;;;2.90;2.05;;;;;;;12.87;80.54;101527.09;1672787;83;21516;-87
2022/07/12 01:37:41;;;;;;;4.30;1.87;;;;;;;12.86;80.62;101512.51;1681709;83;21069;-87
2022/07/12 01:40:10;;;;;;;4.30;2.00;;;;;;;12.87;80.70;101516.52;1674322;85;21121;-91
2022/07/12 01:42:36;;;;;;;2.77;2.10;;;;;;;12.86;80.87;101513.42;1682850;83;21721;-91
2022/07/12 01:45:04;;;;;;;2.60;1.80;;;;;;;12.86;80.94;101514.75;1682711;83;21119;-91
2022/07/12 01:47:33;;;;;;;6.37;1.82;;;;;;;12.83;81.04;101507.61;1661761;84;21043;-92
2022/07/12 01:50:00;;;;;;;2.37;1.82;;;;;;;12.84;81.13;101516.02;1682616;83;21078;-92
2022/07/12 01:52:27;;;;;;;3.40;1.80;;;;;;;12.84;81.23;101518.66;1698784;83;21014;-92
2022/07/12 01:54:54;;;;;;;3.52;1.75;;;;;;;12.85;81.33;101526.16;1683376;83;21857;-87
2022/07/12 01:57:21;;;;;;;2.42;1.95;;;;;;;12.83;81.37;101511.58;1682513;83;21113;-87
2022/07/12 01:59:48;;;;;;;4.65;1.90;;;;;;;12.83;81.39;101510.69;1682205;83;21607;-87
2022/07/12 02:02:15;;;;;;;3.35;1.95;;;;;;;12.83;81.43;101519.50;1674670;83;21104;-87
2022/07/12 02:04:41;;;;;;;4.53;2.30;;;;;;;12.84;81.58;101518.66;1675350;84;21078;-87
2022/07/12 02:07:08;;;;;;;2.25;1.82;;;;;;;12.84;81.68;101514.70;1682201;84;22573;-87
2022/07/12 02:09:35;;;;;;;3.83;1.92;;;;;;;12.85;81.67;101519.55;1674581;84;21072;-87
2022/07/12 02:12:08;;;;;;;2.20;1.98;;;;;;;12.85;81.71;101519.55;1668094;83;21046;-87
2022/07/12 02:14:35;;;;;;;4.62;2.00;;;;;;;12.83;81.64;101518.17;1682596;84;21067;-87
2022/07/12 02:17:04;;;;;;;3.40;2.00;;;;;;;12.84;81.77;101524.38;1642354;86;22595;-87
2022/07/12 02:19:30;;;;;;;5.30;1.92;;;;;;;12.83;81.82;101524.78;1622378;86;21716;-92
2022/07/12 02:21:57;;;;;;;4.58;2.12;;;;;;;12.82;81.87;101519.05;1637236;87;21055;-87
2022/07/12 02:24:27;;;;;;;3.20;2.27;;;;;;;12.83;81.89;101515.97;1630246;86;21082;-86
2022/07/12 02:26:52;;;;;;;4.80;1.95;;;;;;;12.81;81.92;101513.28;1633581;85;21091;-87
2022/07/12 02:29:19;;;;;;;3.60;2.12;;;;;;;12.83;82.03;101504.08;1643994;86;21643;-87
2022/07/12 02:31:46;;;;;;;3.35;2.17;;;;;;;12.83;82.09;101502.76;1646528;84;22451;-86
2022/07/12 02:34:13;;;;;;;4.03;2.17;;;;;;;12.84;82.16;101500.60;1642555;84;21079;-87
2022/07/12 02:36:39;;;;;;;6.33;2.47;;;;;;;12.85;82.27;101498.41;1646691;85;21083;-87
2022/07/12 02:39:07;;;;;;;5.20;2.10;;;;;;;12.85;82.29;101494.45;1645629;84;21154;-86
2022/07/12 02:41:33;;;;;;;2.83;2.00;;;;;;;12.87;82.35;101495.81;1646089;86;21777;-87
2022/07/12 02:44:00;;;;;;;2.22;2.00;;;;;;;12.88;82.46;101497.19;1646083;86;21783;-88
2022/07/12 02:46:27;;;;;;;3.75;2.30;;;;;;;12.89;82.54;101496.31;1652102;85;21638;-87
2022/07/12 02:48:54;;;;;;;3.35;2.17;;;;;;;12.91;82.66;101493.28;1647396;84;21140;-91
2022/07/12 02:51:21;;;;;;;3.50;2.20;;;;;;;12.94;82.63;101494.70;1649570;84;21105;-88
2022/07/12 02:53:49;;;;;;;3.83;2.30;;;;;;;12.97;82.67;101497.84;1641084;85;21062;-91
2022/07/12 02:56:17;;;;;;;5.65;2.30;;;;;;;12.99;82.66;101489.12;1651022;86;22617;-91
2022/07/12 02:58:44;;;;;;;4.03;2.10;;;;;;;13.01;82.66;101492.70;1639287;86;21578;-91
2022/07/12 03:01:11;;;;;;;5.33;2.30;;;;;;;13.05;82.63;101492.80;1649411;86;21125;-87
2022/07/12 03:03:37;;;;;;;4.70;2.15;;;;;;;13.08;82.68;101494.17;1632749;85;21317;-92
2022/07/12 03:06:04;;;;;;;3.45;2.22;;;;;;;13.09;82.68;101490.26;1650792;85;21117;-87
2022/07/12 03:08:32;;;;;;;6.05;2.55;;;;;;;13.12;82.69;101488.11;1634220;84;22413;-92
2022/07/12 03:10:59;;;;;;;2.77;2.00;;;;;;;13.20;82.78;101490.11;1661529;84;21066;-92
2022/07/12 03:13:26;;;;;;;4.22;2.05;;;;;;;13.27;82.85;101487.62;1651160;85;21086;-92
2022/07/12 03:15:53;;;;;;;4.35;2.40;;;;;;;13.33;82.89;101480.78;1627402;85;21203;-87
2022/07/12 03:18:25;;;;;;;3.90;1.98;;;;;;;13.40;82.94;101481.81;1627379;85;21125;-87
2022/07/12 03:20:55;;;;;;;4.85;2.65;;;;;;;13.49;82.95;101485.13;1630401;87;21594;-87
2022/07/12 03:23:22;;;;;;;2.52;2.17;;;;;;;13.56;82.98;101481.34;1643365;85;21154;-88
2022/07/12 03:25:48;;;;;;;2.33;2.02;;;;;;;13.65;82.96;101485.09;1634069;85;21364;-92
2022/07/12 03:28:15;;;;;;;2.30;2.10;;;;;;;13.72;82.94;101489.25;1653330;85;21538;-88
2022/07/12 03:30:42;;;;;;;4.37;2.98;;;;;;;13.84;83.03;101477.16;1673215;85;21591;-87
2022/07/12 03:33:18;;;;;;;3.60;2.15;;;;;;;14.01;83.12;101479.75;1653603;85;22747;-93
2022/07/12 03:35:45;;;;;;;4.12;2.27;;;;;;;14.55;84.52;101476.94;1652747;85;21171;-88
2022/07/12 03:38:18;;;;;;;2.72;1.82;;;;;;;16.19;87.05;101477.55;1656218;85;21081;-87
2022/07/12 03:40:45;;;;;;;4.40;2.00;;;;;;;18.06;86.41;101468.33;1661061;85;21165;-87
2022/07/12 03:43:12;;;;;;;5.37;1.70;;;;;;;19.83;83.73;101465.17;1652328;86;21154;-92
2022/07/12 03:45:40;;;;;;;1.92;1.42;;;;;;;21.15;80.77;101461.48;1637708;86;21737;-92
2022/07/12 03:48:07;;;;;;;2.83;1.70;;;;;;;22.18;78.28;101468.12;1680495;84;21129;-88
2022/07/12 03:50:34;;;;;;;3.60;1.82;;;;;;;22.37;74.33;101466.12;1681864;84;21090;-91
2022/07/12 03:53:01;;;;;;;4.05;1.65;;;;;;;23.07;74.21;101461.16;1696089;84;21117;-88
2022/07/12 03:55:27;;;;;;;5.17;1.47;;;;;;;24.10;72.74;101469.68;1696918;83;21094;-88
2022/07/12 03:57:54;;;;;;;1.77;1.40;;;;;;;25.10;71.50;101470.25;1697810;84;21741;-88
2022/07/12 04:00:21;;;;;;;2.60;1.15;;;;;;;26.03;69.09;101450.78;1672113;84;21591;-88
2022/07/12 04:02:48;;;;;;;2.75;1.05;;;;;;;26.95;67.59;101453.90;1689937;83;21055;-90
2022/07/12 04:05:15;;;;;;;1.90;1.17;;;;;;;27.80;65.18;101455.12;1697246;84;21604;-88
2022/07/12 04:07:41;;;;;;;1.42;1.02;;;;;;;28.58;63.33;101450.90;1695214;84;21082;-88
2022/07/12 04:10:09;;;;;;;3.10;1.10;;;;;;;29.37;61.35;101452.67;1690229;83;21758;-87
2022/07/12 04:12:42;;;;;;;2.83;1.40;;;;;;;29.93;59.82;101444.88;1693360;84;21810;-92
2022/07/12 04:15:09;;;;;;;2.58;1.27;;;;;;;30.51;57.83;101443.55;1688713;84;21102;-87
2022/07/12 04:17:36;;;;;;;2.52;1.10;;;;;;;30.78;55.71;101444.08;1679827;84;21132;-92
2022/07/12 04:20:04;;;;;;;3.67;1.22;;;;;;;31.19;54.44;101442.98;1690512;83;21086;-87
2022/07/12 04:22:31;;;;;;;2.83;1.35;;;;;;;31.76;53.84;101445.05;1672509;84;21767;-88
2022/07/12 04:24:57;;;;;;;2.77;1.80;;;;;;;32.13;51.16;101444.92;1687739;84;21101;-87
2022/07/12 04:27:26;;;;;;;2.10;1.30;;;;;;;32.38;50.70;101438.12;1690330;84;21058;-92
2022/07/12 04:29:53;;;;;;;3.12;1.30;;;;;;;32.93;50.03;101442.70;1692239;83;21076;-87
2022/07/12 04:32:20;;;;;;;3.80;1.50;;;;;;;33.35;48.55;101437.55;1660484;84;21109;-88
2022/07/12 04:34:49;;;;;;;2.12;1.37;;;;;;;33.83;47.97;101431.46;1693955;84;22593;-92
2022/07/12 04:37:16;;;;;;;2.30;0.93;;;;;;;34.34;46.19;101435.11;1691237;84;21567;-87
2022/07/12 04:39:43;;;;;;;3.77;1.10;;;;;;;34.68;45.58;101433.44;1688933;84;21078;-92
2022/07/12 04:42:10;;;;;;;3.50;1.40;;;;;;;35.04;44.67;101431.45;1692248;84;21075;-92
2022/07/12 04:44:36;;;;;;;1.87;1.05;;;;;;;35.41;43.34;101428.48;1697696;83;21086;-91
2022/07/12 04:47:03;;;;;;;4.30;2.17;;;;;;;35.53;42.32;101425.88;1696346;84;21806;-92
2022/07/12 04:49:33;;;;;;;1.87;1.35;;;;;;;35.81;41.27;101429.84;1692101;84;21051;-88
2022/07/12 04:52:00;;;;;;;4.97;2.37;;;;;;;36.01;41.10;101425.66;1695317;84;21694;-88
2022/07/12 04:54:26;;;;;;;1.80;0.95;;;;;;;36.06;39.95;101418.96;1689532;84;21135;-93
2022/07/12 04:56:53;;;;;;;2.20;1.77;;;;;;;36.28;39.57;101416.44;1683091;83;21042;-88
2022/07/12 04:59:20;;;;;;;1.98;0.98;;;;;;;36.49;38.82;101422.70;1699307;83;21807;-93
2022/07/12 05:01:47;;;;;;;1.05;0.88;;;;;;;36.61;37.73;101414.95;1696349;83;21094;-90
2022/07/12 05:04:14;;;;;;;4.40;0.78;;;;;;;36.73;38.14;101423.64;1693076;84;21062;-90
2022/07/12 05:06:41;;;;;;;2.20;0.70;;;;;;;37.27;37.49;101425.58;1699142;84;21075;-89
2022/07/12 05:09:07;;;;;;;0.95;0.78;;;;;;;37.19;36.11;101422.06;1672983;84;21074;-89
2022/07/12 05:11:34;;;;;;;1.45;0.75;;;;;;;37.07;36.15;101421.58;1679286;85;22484;-89
2022/07/12 05:14:01;;;;;;;2.08;0.82;;;;;;;37.20;36.09;101421.55;1685422;84;21604;-92
2022/07/12 05:16:46;;;;;;;1.65;1.02;;;;;;;37.42;34.63;101425.75;1697431;84;21516;-94
2022/07/12 05:19:14;;;;;;;1.40;0.80;;;;;;;37.26;34.07;101426.09;1675219;84;21043;-93
2022/07/12 05:21:41;;;;;;;1.62;0.80;;;;;;;35.94;33.09;101432.55;1695479;83;21700;-94
2022/07/12 05:24:08;;;;;;;0.95;0.57;;;;;;;35.21;33.42;101433.08;1664827;85;21770;-90
2022/07/12 05:26:35;;;;;;;1.30;0.75;;;;;;;35.31;33.73;101437.42;1688101;83;21332;-94
2022/07/12 05:29:02;;;;;;;2.52;1.12;;;;;;;35.26;33.69;101432.28;1675396;84;21042;-94
2022/07/12 05:31:28;;;;;;;1.32;1.02;;;;;;;35.31;34.11;101430.58;1679276;84;21250;-94
2022/07/12 05:33:55;;;;;;;3.17;1.35;;;;;;;35.93;33.50;101435.44;1655944;86;21089;-94
2022/07/12 05:36:22;;;;;;;3.22;1.30;;;;;;;35.66;33.61;101430.88;1628240;87;21765;-95
2022/07/12 05:38:49;;;;;;;3.95;0.93;;;;;;;35.90;32.00;101448.84;1624222;88;21561;-93
2022/07/12 05:41:16;;;;;;;1.22;0.75;;;;;;;35.34;32.52;101434.48;1655768;86;21094;-95
2022/07/12 05:43:43;;;;;;;3.50;0.70;;;;;;;34.99;33.10;101429.55;1654651;85;21383;-90
2022/07/12 05:46:10;;;;;;;1.75;0.60;;;;;;;34.32;32.59;101432.10;1624619;87;21614;-94
2022/07/12 05:49:05;;;;;;;1.30;0.62;;;;;;;32.04;32.51;101432.71;1656136;86;21765;-93
2022/07/12 05:54:17;;;;;;;2.20;0.90;;;;;;;27.56;35.98;101445.59;1651539;86;21126;-93
2022/07/12 05:56:50;;;;;;;3.22;0.93;;;;;;;25.49;38.15;101441.89;1654884;86;21094;-94
2022/07/12 05:59:18;;;;;;;3.12;1.00;;;;;;;24.37;39.98;101446.73;1654082;86;21107;-95
2022/07/12 06:01:45;;;;;;;3.27;2.50;;;;;;;23.27;41.67;101443.83;1652396;85;21786;-89
2022/07/12 06:04:12;;;;;;;2.00;1.65;;;;;;;22.62;43.05;101445.25;1640094;86;21089;-93
2022/07/12 06:06:39;;;;;;;3.37;1.10;;;;;;;22.08;44.20;101448.58;1653453;86;21560;-89
2022/07/12 06:09:06;;;;;;;2.70;1.25;;;;;;;21.55;45.97;101453.59;1651387;85;21140;-93
2022/07/12 06:11:33;;;;;;;1.67;1.05;;;;;;;21.15;46.54;101436.47;1638368;87;21100;-89
2022/07/12 06:14:00;;;;;;;2.35;1.25;;;;;;;20.88;47.50;101438.91;1648427;87;22612;-93
2022/07/12 06:16:27;;;;;;;1.70;0.82;;;;;;;20.62;48.21;101450.66;1648771;87;21086;-92
2022/07/12 06:18:53;;;;;;;1.52;1.15;;;;;;;20.42;49.32;101442.72;1646326;87;21110;-90
2022/07/12 06:21:20;;;;;;;2.27;0.93;;;;;;;20.32;49.70;101443.18;1648124;85;21972;-89
2022/07/12 06:24:01;;;;;;;4.60;0.75;;;;;;;20.28;50.12;101440.55;1640458;87;21086;-93
2022/07/12 06:26:37;;;;;;;3.17;1.80;;;;;;;20.17;50.61;101439.23;1622677;87;21786;-95
2022/07/12 06:29:08;;;;;;;2.45;1.30;;;;;;;20.13;51.11;101445.49;1611530;87;21081;-89
2022/07/12 06:31:46;;;;;;;3.52;1.45;;;;;;;20.02;51.70;101429.94;1608432;88;21153;-93
2022/07/12 06:34:12;;;;;;;2.47;0.98;;;;;;;19.95;51.80;101439.74;1611368;88;21603;-94
2022/07/12 06:36:39;;;;;;;2.62;1.00;;;;;;;19.98;52.69;101438.41;1644142;87;21600;-89
2022/07/12 06:39:06;;;;;;;2.70;0.93;;;;;;;19.98;52.75;101433.95;1656515;84;21766;-94
2022/07/12 06:41:33;;;;;;;2.87;1.00;;;;;;;20.00;53.27;101429.48;1646444;86;21092;-89
2022/07/12 06:43:59;;;;;;;2.25;1.02;;;;;;;19.98;53.64;101429.94;1646589;86;21088;-89
2022/07/12 06:46:26;;;;;;;5.45;1.85;;;;;;;19.94;53.47;101436.65;1646967;86;21233;-93
2022/07/12 06:49:04;;;;;;;3.27;0.95;;;;;;;19.96;53.81;101441.54;1638164;87;21048;-93
2022/07/12 06:51:31;;;;;;;2.27;1.27;;;;;;;20.00;53.89;101428.15;1625316;86;21828;-89
2022/07/12 06:53:57;;;;;;;4.05;1.40;;;;;;;20.05;54.03;101445.98;1646256;86;21108;-89
2022/07/12 06:56:24;;;;;;;2.62;0.70;;;;;;;19.96;54.10;101426.39;1647295;85;21096;-94
2022/07/12 06:59:47;;;;;;;2.50;0.88;;;;;;;19.96;54.10;101426.39;1627652;86;21077;-93
2022/07/12 07:02:15;;;;;;;0.82;0.68;;;;;;;20.08;53.84;101455.30;1646272;85;21204;-90
2022/07/12 07:04:42;;;;;;;1.70;0.60;;;;;;;20.16;54.18;101451.72;1646137;87;21805;-94
2022/07/12 07:07:12;;;;;;;2.85;1.45;;;;;;;20.16;54.18;101451.72;1681293;84;21580;-89
2022/07/12 07:09:40;;;;;;;1.82;1.27;;;;;;;20.24;54.08;101445.47;1676602;85;21065;-93
2022/07/12 07:12:07;;;;;;;2.10;1.27;;;;;;;20.31;54.03;101433.82;1675655;85;21092;-90
2022/07/12 07:14:33;;;;;;;1.65;0.75;;;;;;;20.33;53.76;101445.42;1656992;85;21070;-93
2022/07/12 07:17:03;;;;;;;1.50;0.90;;;;;;;20.49;53.76;101451.58;1633966;86;21734;-92
2022/07/12 07:19:47;;;;;;;3.15;0.80;;;;;;;20.50;53.41;101446.69;1644681;85;21157;-95
2022/07/12 07:22:14;;;;;;;1.92;0.65;;;;;;;20.46;53.64;101455.59;1645164;86;21069;-95
2022/07/12 07:24:41;;;;;;;2.55;1.15;;;;;;;20.46;53.65;101435.54;1624005;87;21078;-93
2022/07/12 07:27:08;;;;;;;1.20;0.70;;;;;;;20.49;53.49;101443.10;1647922;85;21106;-93
2022/07/12 07:32:21;;;;;;;0.70;0.57;;;;;;;20.50;53.27;101440.87;1692136;84;21580;-90
2022/07/12 07:35:05;;;;;;;1.50;0.75;;;;;;;20.61;53.15;101438.19;1699364;84;21059;-94
2022/07/12 07:37:33;;;;;;;1.00;0.80;;;;;;;20.76;53.18;101434.08;1698098;84;21113;-91
2022/07/12 07:40:14;;;;;;;2.87;0.80;;;;;;;20.95;53.05;101440.66;1693946;84;21611;-93
2022/07/12 07:42:41;;;;;;;1.92;1.10;;;;;;;21.02;52.77;101420.07;1693179;84;22150;-90
2022/07/12 07:45:10;;;;;;;1.52;1.30;;;;;;;21.39;52.41;101436.72;1699678;84;21584;-91
2022/07/12 07:47:48;;;;;;;5.40;1.57;;;;;;;21.53;51.55;101445.56;1699327;84;21043;-93
2022/07/12 07:50:16;;;;;;;1.32;1.00;;;;;;;21.58;51.17;101441.48;1708797;83;22213;-90
2022/07/12 07:52:44;;;;;;;1.67;1.30;;;;;;;21.57;50.56;101452.21;1662718;85;38079;-90
2022/07/12 07:55:22;;;;;;;1.17;0.70;;;;;;;21.53;50.31;101445.56;1685499;84;21852;-93
2022/07/12 07:57:49;;;;;;;1.75;0.65;;;;;;;21.61;50.23;101430.75;1697913;84;21079;-92
2022/07/12 08:00:16;;;;;;;1.05;0.95;;;;;;;21.67;49.70;101427.13;1641991;84;21143;-91
2022/07/12 08:02:43;;;;;;;1.07;0.57;;;;;;;21.61;49.20;101456.67;1683771;85;21039;-92
2022/07/12 08:05:24;;;;;;;3.15;1.25;;;;;;;21.45;49.19;101455.91;1692765;84;21273;-94
2022/07/12 08:08:00;;;;;;;3.02;2.20;;;;;;;21.27;49.63;101444.42;1659361;84;22592;-94
2022/07/12 08:10:27;;;;;;;1.37;1.15;;;;;;;21.29;49.90;101455.13;1690534;83;21074;-90
2022/07/12 08:12:53;;;;;;;0.75;0.70;;;;;;;21.30;49.93;101449.77;1683769;83;21585;-89
2022/07/12 08:15:20;;;;;;;2.77;1.10;;;;;;;21.35;49.58;101446.57;1673806;84;21062;-90
2022/07/12 08:17:47;;;;;;;1.57;1.17;;;;;;;21.40;49.94;101442.53;1683112;84;21050;-91
2022/07/12 08:20:14;;;;;;;2.85;0.68;;;;;;;21.67;50.25;101440.52;1685359;84;22098;-89
2022/07/12 08:22:47;;;;;;;3.75;0.80;;;;;;;21.88;49.18;101421.98;1700743;84;21657;-86
2022/07/12 08:25:17;;;;;;;1.00;0.75;;;;;;;21.90;48.66;101426.44;1687591;84;21043;-89
2022/07/12 08:27:43;;;;;;;2.25;0.80;;;;;;;21.85;48.06;101441.68;1706202;83;21269;-93
2022/07/12 08:30:12;;;;;;;1.82;0.62;;;;;;;21.74;47.98;101427.50;1697000;84;21154;-89
2022/07/12 08:32:49;;;;;;;3.75;0.72;;;;;;;21.66;47.94;101428.02;1678753;84;21759;-91
2022/07/12 08:35:16;;;;;;;0.95;0.60;;;;;;;21.63;47.97;101422.25;1677132;85;21102;-92
2022/07/12 08:37:53;;;;;;;2.45;0.68;;;;;;;21.69;48.08;101435.57;1677365;85;21066;-92
2022/07/12 08:40:19;;;;;;;4.45;0.70;;;;;;;21.80;48.24;101426.09;1677270;85;21161;-92
2022/07/12 08:43:23;;;;;;;1.30;1.07;;;;;;;21.99;47.52;101436.61;1693579;83;21142;-91
2022/07/12 08:45:50;;;;;;;4.97;1.72;;;;;;;22.06;47.43;101428.48;1656843;85;21751;-91
2022/07/12 08:48:19;;;;;;;1.07;0.70;;;;;;;22.05;47.23;101409.27;1687863;84;21105;-92
2022/07/12 08:51:02;;;;;;;2.72;0.70;;;;;;;22.13;47.48;101422.14;1678955;85;21154;-92
2022/07/12 08:53:29;;;;;;;1.52;0.80;;;;;;;22.25;46.94;101458.67;1669067;84;21090;-88
2022/07/12 08:55:56;;;;;;;4.05;0.62;;;;;;;22.28;47.14;101433.17;1686846;84;21047;-87
2022/07/12 08:58:23;;;;;;;7.22;1.02;;;;;;;22.21;46.69;101411.78;1676938;84;22577;-92
2022/07/12 09:00:56;;;;;;;1.40;0.65;;;;;;;22.22;46.77;101418.44;1656836;86;21055;-91
2022/07/12 09:03:22;;;;;;;1.55;1.22;;;;;;;22.28;47.08;101413.05;1677540;84;21047;-89
2022/07/12 09:05:54;;;;;;;1.32;0.65;;;;;;;22.29;46.15;101413.47;1676573;83;21097;-91
2022/07/12 09:08:29;;;;;;;3.87;1.10;;;;;;;22.15;46.09;101430.17;1676197;85;21079;-89
2022/07/12 09:11:04;;;;;;;0.62;0.62;;;;;;;22.02;46.26;101418.70;1674816;83;22608;-91
2022/07/12 09:13:53;;;;;;;0.60;0.50;;;;;;;22.00;46.43;101412.91;1674459;84;22025;-88
2022/07/12 09:16:24;;;;;;;4.10;1.22;;;;;;;21.97;46.55;101408.94;1685461;84;21600;-88
2022/07/12 09:18:51;;;;;;;3.08;0.70;;;;;;;22.20;46.88;101412.20;1679608;83;21125;-88
2022/07/12 09:21:27;;;;;;;3.00;1.10;;;;;;;22.27;46.67;101412.60;1670524;83;21073;-88
2022/07/12 09:23:59;;;;;;;3.52;0.88;;;;;;;22.28;46.89;101392.94;1698706;83;21749;-87
2022/07/12 09:26:34;;;;;;;1.60;0.62;;;;;;;22.51;46.52;101401.12;1692529;83;21112;-88
2022/07/12 09:29:11;;;;;;;2.85;1.17;;;;;;;22.51;45.85;101419.44;1686135;83;21112;-92
2022/07/12 09:37:22;;;;;;;1.52;0.70;;;;;;;22.48;45.63;101398.47;1698708;84;21874;-88
2022/07/12 09:39:49;;;;;;;2.52;0.95;;;;;;;22.49;45.74;101397.58;1680553;85;21643;-92
2022/07/12 09:42:15;;;;;;;1.98;1.52;;;;;;;22.50;46.04;101416.34;1660462;85;21559;-88
2022/07/12 09:44:42;;;;;;;2.17;1.22;;;;;;;22.55;45.71;101400.16;1626225;87;21615;-91
2022/07/12 09:47:15;;;;;;;3.10;0.70;;;;;;;22.58;45.39;101393.42;1694789;83;21058;-89
2022/07/12 09:49:43;;;;;;;3.65;0.90;;;;;;;22.76;45.77;101381.97;1686319;83;22764;-91
2022/07/12 09:52:12;;;;;;;3.27;1.60;;;;;;;22.86;44.78;101391.64;1681834;85;21058;-88
2022/07/12 09:54:41;;;;;;;3.60;1.10;;;;;;;22.86;44.80;101394.33;1656420;85;21660;-88
2022/07/12 09:57:19;;;;;;;8.18;1.22;;;;;;;22.82;44.32;101392.60;1632930;86;21094;-91
2022/07/12 09:59:47;;;;;;;1.85;1.52;;;;;;;22.76;44.24;101389.56;1697001;83;21090;-88
2022/07/12 10:02:28;;;;;;;1.55;1.20;;;;;;;22.84;44.08;101385.41;1699660;83;22702;-91
2022/07/12 10:04:55;;;;;;;4.72;1.20;;;;;;;22.89;43.81;101373.69;1695090;84;21094;-88
2022/07/12 10:07:22;;;;;;;2.05;0.98;;;;;;;22.73;42.52;101390.06;1696515;84;21284;-88
2022/07/12 10:09:51;;;;;;;1.70;1.05;;;;;;;22.60;43.26;101386.23;1690295;84;21051;-88
2022/07/12 10:12:21;;;;;;;3.05;0.50;;;;;;;22.62;43.51;101391.12;1708983;83;21682;-92
2022/07/12 10:14:53;;;;;;;1.50;0.70;;;;;;;22.73;42.98;101420.92;1699066;83;22620;-88
2022/07/12 10:17:23;;;;;;;2.33;0.90;;;;;;;22.79;43.11;101405.63;1678922;83;21082;-89
2022/07/12 10:19:50;;;;;;;2.25;0.72;;;;;;;22.88;43.05;101405.92;1676557;84;21310;-92
2022/07/12 10:22:21;;;;;;;1.27;0.50;;;;;;;22.84;42.22;101415.84;1701841;83;21105;-89
2022/07/12 10:24:51;;;;;;;1.52;0.60;;;;;;;22.60;42.46;101390.69;1677784;85;21082;-91
2022/07/12 10:27:24;;;;;;;1.50;1.10;;;;;;;22.59;42.58;101397.86;1684752;83;22495;-88
2022/07/12 10:29:52;;;;;;;1.07;0.93;;;;;;;22.59;43.25;101394.30;1659290;85;21086;-90
2022/07/12 10:32:36;;;;;;;5.12;0.98;;;;;;;22.55;42.89;101400.16;1700523;83;21064;-89
2022/07/12 10:35:07;;;;;;;2.87;1.00;;;;;;;22.52;42.69;101405.56;1660212;85;21071;-90
2022/07/12 10:37:40;;;;;;;2.40;0.78;;;;;;;22.48;42.62;101395.33;1680278;84;21066;-91
2022/07/12 10:40:19;;;;;;;3.15;0.90;;;;;;;22.48;42.59;101394.45;1688212;83;21785;-91
2022/07/12 10:43:07;;;;;;;2.60;0.65;;;;;;;22.54;41.81;101385.42;1684141;83;21030;-88
2022/07/12 10:45:37;;;;;;;1.37;0.65;;;;;;;22.57;42.03;101391.64;1680639;83;21065;-88
2022/07/12 10:48:11;;;;;;;0.50;0.40;;;;;;;22.53;41.45;101401.98;1675335;85;21634;-91
2022/07/12 10:50:54;;;;;;;2.45;0.53;;;;;;;22.58;42.02;101379.09;1680550;85;21081;-89
2022/07/12 10:53:30;;;;;;;4.50;1.27;;;;;;;22.55;41.65;101375.14;1679879;84;22449;-91
2022/07/12 10:56:20;;;;;;;3.92;1.57;;;;;;;22.45;41.31;101390.48;1680071;84;21061;-93
2022/07/12 10:58:54;;;;;;;2.47;0.93;;;;;;;22.51;41.91;101384.56;1676683;85;21102;-92
2022/07/12 11:01:23;;;;;;;8.90;0.90;;;;;;;22.49;41.48;101397.58;1677925;83;21048;-92
2022/07/12 11:07:33;;;;;;;2.10;1.20;;;;;;;22.61;41.36;101383.09;1576321;90;21632;-90
2022/07/12 11:10:00;;;;;;;1.95;0.80;;;;;;;22.55;40.96;101402.84;1573262;91;21670;-92
2022/07/12 11:12:32;;;;;;;1.12;0.70;;;;;;;22.51;40.98;101376.52;1559922;90;21641;-92
2022/07/12 11:15:01;;;;;;;1.50;1.15;;;;;;;22.55;41.23;101377.36;1579204;89;21116;-93
2022/07/12 11:17:32;;;;;;;4.42;0.42;;;;;;;22.67;41.48;101381.22;1576815;89;21105;-90
2022/07/12 11:20:11;;;;;;;3.37;0.70;;;;;;;22.77;41.33;101373.91;1576574;89;21931;-90
2022/07/12 11:22:39;;;;;;;0.72;0.72;;;;;;;22.75;40.66;101384.21;1580728;89;21161;-93
2022/07/12 11:25:11;;;;;;;1.42;1.02;;;;;;;22.61;40.79;101396.05;1586630;89;21128;-91
2022/07/12 11:27:39;;;;;;;2.25;0.90;;;;;;;22.51;41.31;101387.25;1599227;88;21195;-90
2022/07/12 11:30:09;;;;;;;1.50;0.70;;;;;;;22.52;40.93;101381.41;1584122;87;21094;-93
2022/07/12 11:32:47;;;;;;;1.20;0.60;;;;;;;22.57;39.78;101390.76;1591264;90;21840;-94
2022/07/12 11:35:20;;;;;;;2.95;0.70;;;;;;;22.54;39.79;101383.63;1540425;92;21095;-94
2022/07/12 11:37:56;;;;;;;1.45;0.72;;;;;;;22.48;39.88;101372.98;1587580;89;21146;-90
2022/07/12 11:40:27;;;;;;;2.12;0.80;;;;;;;22.45;40.06;101371.71;1566349;90;21313;-89
2022/07/12 11:42:55;;;;;;;1.15;0.65;;;;;;;22.39;39.81;101374.03;1587824;88;21776;-94
2022/07/12 11:45:22;;;;;;;1.15;0.75;;;;;;;22.41;40.08;101378.91;1574754;88;21881;-89
2022/07/12 11:47:49;;;;;;;1.90;0.62;;;;;;;22.41;39.33;101399.03;1584602;89;21148;-93
2022/07/12 11:50:18;;;;;;;3.65;0.88;;;;;;;22.46;39.73;101371.66;1586118;90;21175;-90